createdAt,value
2023-04-17T00:01:11.780Z,14.77
2023-04-17T00:03:38.403Z,14.77
2023-04-17T00:06:05.407Z,14.78
2023-04-17T00:08:33.961Z,14.79
2023-04-17T00:11:07.998Z,14.79
2023-04-17T00:13:36.089Z,14.79
2023-04-17T00:16:02.940Z,14.78
2023-04-17T00:18:29.786Z,14.78
2023-04-17T00:20:56.867Z,14.78
2023-04-17T00:23:23.893Z,14.78
2023-04-17T00:25:50.532Z,14.77
2023-04-17T00:28:17.208Z,14.78
2023-04-17T00:30:43.781Z,14.79
2023-04-17T00:33:10.520Z,14.77
2023-04-17T00:35:37.234Z,14.77
2023-04-17T00:38:04.972Z,14.75
2023-04-17T00:40:31.553Z,14.76
2023-04-17T00:43:04.514Z,14.75
2023-04-17T00:45:31.451Z,14.76
2023-04-17T00:47:59.147Z,14.75
2023-04-17T00:50:27.396Z,14.76
2023-04-17T00:52:54.625Z,14.78
2023-04-17T00:55:21.740Z,14.77
2023-04-17T00:57:51.632Z,14.75
2023-04-17T01:00:18.569Z,14.76
2023-04-17T01:02:46.702Z,14.75
2023-04-17T01:05:13.689Z,14.75
2023-04-17T01:07:44.076Z,14.75
2023-04-17T01:10:10.848Z,14.75
2023-04-17T01:12:37.561Z,14.74
2023-04-17T01:15:05.051Z,14.76
2023-04-17T01:17:32.246Z,14.75
2023-04-17T01:19:58.829Z,14.74
2023-04-17T01:22:25.786Z,14.75
2023-04-17T01:24:56.606Z,14.76
2023-04-17T01:27:26.228Z,14.74
2023-04-17T01:29:52.889Z,14.75
2023-04-17T01:32:20.237Z,14.75
2023-04-17T01:34:46.845Z,14.73
2023-04-17T01:37:13.403Z,14.74
2023-04-17T01:39:40.691Z,14.73
2023-04-17T01:42:07.415Z,14.74
2023-04-17T01:44:34.102Z,14.74
2023-04-17T01:47:00.996Z,14.73
2023-04-17T01:49:27.609Z,14.74
2023-04-17T01:51:54.340Z,14.74
2023-04-17T01:54:21.326Z,14.74
2023-04-17T01:56:48.247Z,14.72
2023-04-17T01:59:14.944Z,14.73
2023-04-17T02:01:41.937Z,14.73
2023-04-17T02:04:08.830Z,14.72
2023-04-17T02:06:35.935Z,14.72
2023-04-17T02:09:03.080Z,14.72
2023-04-17T02:11:29.856Z,14.71
2023-04-17T02:13:56.501Z,14.70
2023-04-17T02:16:23.173Z,14.69
2023-04-17T02:18:50.343Z,14.69
2023-04-17T02:21:16.996Z,14.68
2023-04-17T02:23:43.868Z,14.67
2023-04-17T02:26:10.698Z,14.68
2023-04-17T02:28:37.164Z,14.69
2023-04-17T02:31:08.620Z,14.68
2023-04-17T02:33:39.038Z,14.70
2023-04-17T02:36:07.037Z,14.69
2023-04-17T02:38:39.262Z,14.70
2023-04-17T02:41:06.478Z,14.71
2023-04-17T02:43:33.813Z,14.70
2023-04-17T02:46:01.477Z,14.69
2023-04-17T02:48:28.333Z,14.69
2023-04-17T02:50:55.286Z,14.69
2023-04-17T02:53:22.338Z,14.69
2023-04-17T02:55:49.660Z,14.70
2023-04-17T02:58:19.040Z,14.69
2023-04-17T03:00:45.970Z,14.69
2023-04-17T03:03:16.191Z,14.69
2023-04-17T03:05:43.137Z,14.67
2023-04-17T03:08:11.029Z,14.67
2023-04-17T03:10:49.324Z,14.69
2023-04-17T03:13:16.152Z,14.67
2023-04-17T03:15:42.784Z,14.67
2023-04-17T03:18:09.404Z,14.67
2023-04-17T03:20:36.340Z,14.67
2023-04-17T03:23:02.915Z,14.67
2023-04-17T03:25:29.512Z,14.68
2023-04-17T03:27:56.639Z,14.67
2023-04-17T03:30:30.889Z,14.67
2023-04-17T03:33:01.262Z,14.67
2023-04-17T03:35:30.003Z,14.65
2023-04-17T03:37:56.678Z,14.68
2023-04-17T03:40:23.919Z,14.67
2023-04-17T03:42:50.567Z,14.66
2023-04-17T03:45:17.143Z,14.66
2023-04-17T03:47:44.059Z,14.67
2023-04-17T03:50:11.306Z,14.66
2023-04-17T03:52:44.022Z,14.65
2023-04-17T03:55:11.437Z,14.65
2023-04-17T03:57:38.472Z,14.63
2023-04-17T04:00:10.501Z,14.63
2023-04-17T04:02:49.009Z,14.62
2023-04-17T04:05:19.941Z,14.63
2023-04-17T04:07:47.224Z,14.62
2023-04-17T04:10:21.463Z,14.60
2023-04-17T04:12:48.066Z,14.60
2023-04-17T04:15:15.603Z,14.59
2023-04-17T04:17:44.924Z,14.58
2023-04-17T04:20:12.146Z,14.60
2023-04-17T04:22:41.571Z,14.57
2023-04-17T04:25:08.395Z,14.60
2023-04-17T04:27:49.739Z,14.74
2023-04-17T04:30:21.754Z,14.70
2023-04-17T04:32:51.524Z,14.67
2023-04-17T04:35:18.357Z,14.65
2023-04-17T04:37:46.452Z,14.62
2023-04-17T04:40:16.620Z,14.61
2023-04-17T04:42:49.445Z,14.56
2023-04-17T04:45:21.172Z,14.55
2023-04-17T04:47:47.872Z,14.55
2023-04-17T04:50:14.691Z,14.53
2023-04-17T04:52:41.237Z,14.52
2023-04-17T04:55:39.915Z,14.50
2023-04-17T04:58:06.580Z,14.50
2023-04-17T05:00:35.471Z,14.49
2023-04-17T05:03:03.001Z,14.49
2023-04-17T05:05:30.089Z,14.48
2023-04-17T05:07:56.835Z,14.48
2023-04-17T05:10:27.791Z,14.46
2023-04-17T05:12:59.179Z,14.47
2023-04-17T05:15:27.141Z,14.46
2023-04-17T05:17:54.475Z,14.46
2023-04-17T05:20:21.829Z,14.45
2023-04-17T05:22:53.453Z,14.46
2023-04-17T05:25:22.614Z,14.44
2023-04-17T05:27:49.557Z,14.44
2023-04-17T05:30:17.039Z,14.44
2023-04-17T05:32:46.668Z,14.43
2023-04-17T05:35:32.199Z,14.42
2023-04-17T05:37:59.559Z,14.42
2023-04-17T05:40:26.161Z,14.41
2023-04-17T05:42:52.856Z,14.41
2023-04-17T05:45:19.576Z,14.40
2023-04-17T05:47:46.477Z,14.42
2023-04-17T05:50:14.523Z,14.41
2023-04-17T05:52:41.422Z,14.41
2023-04-17T05:55:10.581Z,14.39
2023-04-17T05:57:38.150Z,14.39
2023-04-17T06:00:13.201Z,14.40
2023-04-17T06:02:48.992Z,14.35
2023-04-17T06:05:24.780Z,14.36
2023-04-17T06:07:51.892Z,14.37
2023-04-17T06:10:18.673Z,14.35
2023-04-17T06:12:45.451Z,14.36
2023-04-17T06:15:12.569Z,14.35
2023-04-17T06:17:39.582Z,14.35
2023-04-17T06:20:10.237Z,14.35
2023-04-17T06:22:37.392Z,14.34
2023-04-17T06:25:11.666Z,14.34
2023-04-17T06:27:38.907Z,14.34
2023-04-17T06:30:05.814Z,14.35
2023-04-17T06:32:43.300Z,14.32
2023-04-17T06:35:12.789Z,14.33
2023-04-17T06:37:47.725Z,14.32
2023-04-17T06:40:14.538Z,14.59
2023-04-17T06:42:41.206Z,14.77
2023-04-17T06:45:12.116Z,15.02
2023-04-17T06:47:38.773Z,15.02
2023-04-17T06:50:05.841Z,15.00
2023-04-17T06:52:34.502Z,15.02
2023-04-17T06:55:02.345Z,15.03
2023-04-17T06:57:29.239Z,14.89
2023-04-17T06:59:55.793Z,14.79
2023-04-17T07:02:22.585Z,14.75
2023-04-17T07:04:49.389Z,14.75
2023-04-17T07:07:16.286Z,14.75
2023-04-17T07:09:44.172Z,14.73
2023-04-17T07:12:10.898Z,14.72
2023-04-17T07:14:38.274Z,14.72
2023-04-17T07:17:04.984Z,14.72
2023-04-17T07:19:32.384Z,14.71
2023-04-17T07:21:59.058Z,14.71
2023-04-17T07:24:25.698Z,14.70
2023-04-17T07:26:52.379Z,14.69
2023-04-17T07:29:19.180Z,14.70
2023-04-17T07:31:46.226Z,14.66
2023-04-17T07:34:13.132Z,14.66
2023-04-17T07:36:39.859Z,14.65
2023-04-17T07:39:08.072Z,14.65
2023-04-17T07:41:34.882Z,14.64
2023-04-17T07:44:03.572Z,14.64
2023-04-17T07:46:30.199Z,14.63
2023-04-17T07:48:56.832Z,14.62
2023-04-17T07:51:23.393Z,14.63
2023-04-17T07:53:50.164Z,14.61
2023-04-17T07:56:17.577Z,14.62
2023-04-17T07:58:45.235Z,14.61
2023-04-17T08:01:11.822Z,14.62
2023-04-17T08:03:41.614Z,14.61
2023-04-17T08:06:08.508Z,14.60
2023-04-17T08:08:35.048Z,14.61
2023-04-17T08:11:01.644Z,14.61
2023-04-17T08:13:29.733Z,14.63
2023-04-17T08:15:56.387Z,14.61
2023-04-17T08:18:22.996Z,14.61
2023-04-17T08:20:52.198Z,14.61
2023-04-17T08:23:18.732Z,14.58
2023-04-17T08:25:45.844Z,14.60
2023-04-17T08:28:12.425Z,14.60
2023-04-17T08:30:39.123Z,14.62
2023-04-17T08:33:05.916Z,14.63
2023-04-17T08:35:32.632Z,14.63
2023-04-17T08:38:00.199Z,14.64
2023-04-17T08:40:26.826Z,14.66
2023-04-17T08:42:54.377Z,14.66
2023-04-17T08:45:22.871Z,14.69
2023-04-17T08:47:49.507Z,14.67
2023-04-17T08:50:17.714Z,14.69
2023-04-17T08:52:50.961Z,14.69
2023-04-17T08:55:19.614Z,14.69
2023-04-17T08:58:01.404Z,14.70
2023-04-17T09:00:28.896Z,14.70
2023-04-17T09:02:57.135Z,14.73
2023-04-17T09:05:24.274Z,14.72
2023-04-17T09:07:51.892Z,14.71
2023-04-17T09:10:18.737Z,14.72
2023-04-17T09:12:59.004Z,14.72
2023-04-17T09:15:25.957Z,14.72
2023-04-17T09:17:52.734Z,14.74
2023-04-17T09:20:19.629Z,14.75
2023-04-17T09:22:46.427Z,14.77
2023-04-17T09:25:20.760Z,14.76
2023-04-17T09:27:47.561Z,14.75
2023-04-17T09:30:14.261Z,14.76
2023-04-17T09:32:41.041Z,14.76
2023-04-17T09:35:08.135Z,14.77
2023-04-17T09:37:49.988Z,14.77
2023-04-17T09:40:17.212Z,14.78
2023-04-17T09:42:56.964Z,14.79
2023-04-17T09:45:24.616Z,14.78
2023-04-17T09:47:52.343Z,14.77
2023-04-17T09:50:22.415Z,14.77
2023-04-17T09:52:50.589Z,14.78
2023-04-17T09:55:21.297Z,14.78
2023-04-17T09:57:49.537Z,14.78
2023-04-17T10:00:17.615Z,14.78
2023-04-17T10:02:44.959Z,14.79
2023-04-17T10:05:11.889Z,14.79
2023-04-17T10:07:39.104Z,14.81
2023-04-17T10:10:09.415Z,14.79
2023-04-17T10:12:37.001Z,14.81
2023-04-17T10:15:04.710Z,14.88
2023-04-17T10:17:32.701Z,15.11
2023-04-17T10:20:20.423Z,15.19
2023-04-17T10:22:57.016Z,15.22
2023-04-17T10:25:27.578Z,15.25
2023-04-17T10:27:55.511Z,15.29
2023-04-17T10:30:23.166Z,15.28
2023-04-17T10:33:10.265Z,15.22
2023-04-17T10:35:36.901Z,15.36
2023-04-17T10:38:05.250Z,15.41
2023-04-17T10:40:32.858Z,15.48
2023-04-17T10:43:04.235Z,15.45
2023-04-17T10:45:49.348Z,15.47
2023-04-17T10:48:45.066Z,15.48
2023-04-17T10:51:20.764Z,15.44
2023-04-17T10:53:51.449Z,15.31
2023-04-17T10:56:23.887Z,15.24
2023-04-17T10:59:01.916Z,15.24
2023-04-17T11:01:29.492Z,15.23
2023-04-17T11:03:56.728Z,15.19
2023-04-17T11:06:27.309Z,15.18
2023-04-17T11:08:55.691Z,15.16
2023-04-17T11:11:35.302Z,15.16
2023-04-17T11:14:12.884Z,15.14
2023-04-17T11:16:42.122Z,15.12
2023-04-17T11:19:13.244Z,15.19
2023-04-17T11:21:42.474Z,15.33
2023-04-17T11:24:09.212Z,15.40
2023-04-17T11:26:45.355Z,15.46
2023-04-17T11:29:15.465Z,15.50
2023-04-17T11:31:42.258Z,15.54
2023-04-17T11:34:09.796Z,15.54
2023-04-17T11:36:36.454Z,15.53
2023-04-17T11:39:03.924Z,15.57
2023-04-17T11:41:37.740Z,15.59
2023-04-17T11:44:04.323Z,15.54
2023-04-17T11:46:31.100Z,15.59
2023-04-17T11:48:57.771Z,15.62
2023-04-17T11:51:26.226Z,15.60
2023-04-17T11:53:52.775Z,15.61
2023-04-17T11:56:19.949Z,15.66
2023-04-17T11:58:50.648Z,15.71
2023-04-17T12:01:18.643Z,15.75
2023-04-17T12:03:45.851Z,15.82
2023-04-17T12:06:13.258Z,15.73
2023-04-17T12:08:42.674Z,15.60
2023-04-17T12:11:14.962Z,15.52
2023-04-17T12:13:41.485Z,15.49
2023-04-17T12:16:08.162Z,15.47
2023-04-17T12:18:34.724Z,15.47
2023-04-17T12:21:01.289Z,15.46
2023-04-17T12:23:27.879Z,15.44
2023-04-17T12:25:54.472Z,15.45
2023-04-17T12:28:22.191Z,15.43
2023-04-17T12:30:48.856Z,15.42
2023-04-17T12:33:15.603Z,15.39
2023-04-17T12:35:42.223Z,15.38
2023-04-17T12:38:09.216Z,15.34
2023-04-17T12:40:35.908Z,15.34
2023-04-17T12:43:04.229Z,15.31
2023-04-17T12:45:30.923Z,15.31
2023-04-17T12:47:57.893Z,15.28
2023-04-17T12:50:25.245Z,15.29
2023-04-17T12:52:51.813Z,15.29
2023-04-17T12:55:18.562Z,15.28
2023-04-17T12:57:46.207Z,15.28
2023-04-17T13:00:13.285Z,15.29
2023-04-17T13:02:40.645Z,15.27
2023-04-17T13:05:07.581Z,15.27
2023-04-17T13:07:34.517Z,15.28
2023-04-17T13:10:01.272Z,15.29
2023-04-17T13:12:27.806Z,15.29
2023-04-17T13:14:54.370Z,15.28
2023-04-17T13:17:21.352Z,15.28
2023-04-17T13:19:48.004Z,15.28
2023-04-17T13:22:16.048Z,15.27
2023-04-17T13:24:42.717Z,15.27
2023-04-17T13:27:09.968Z,15.26
2023-04-17T13:29:36.631Z,15.28
2023-04-17T13:32:03.301Z,15.26
2023-04-17T13:34:29.883Z,15.28
2023-04-17T13:36:56.548Z,15.27
2023-04-17T13:39:23.172Z,15.28
2023-04-17T13:41:49.730Z,15.28
2023-04-17T13:44:17.520Z,15.29
2023-04-17T13:46:44.590Z,15.29
2023-04-17T13:49:11.730Z,15.27
2023-04-17T13:51:38.646Z,15.27
2023-04-17T13:54:05.342Z,15.29
2023-04-17T13:56:31.965Z,15.26
2023-04-17T13:58:58.498Z,15.29
2023-04-17T14:01:25.241Z,15.27
2023-04-17T14:03:52.258Z,15.29
2023-04-17T14:06:19.076Z,15.31
2023-04-17T14:08:46.194Z,15.38
2023-04-17T14:11:14.096Z,15.54
2023-04-17T14:13:40.947Z,15.60
2023-04-17T14:16:07.908Z,15.68
2023-04-17T14:18:34.579Z,15.74
2023-04-17T14:21:01.297Z,15.81
2023-04-17T14:23:28.256Z,15.86
2023-04-17T14:25:55.040Z,15.89
2023-04-17T14:28:22.412Z,15.93
2023-04-17T14:30:49.048Z,15.95
2023-04-17T14:33:15.609Z,16.01
2023-04-17T14:35:42.278Z,16.06
2023-04-17T14:38:08.920Z,16.07
2023-04-17T14:40:35.724Z,16.19
2023-04-17T14:43:02.546Z,16.08
2023-04-17T14:45:29.683Z,15.97
2023-04-17T14:47:56.496Z,15.91
2023-04-17T14:50:23.312Z,15.93
2023-04-17T14:52:50.010Z,15.90
2023-04-17T14:55:16.734Z,15.84
2023-04-17T14:57:43.610Z,15.80
2023-04-17T15:00:10.590Z,15.76
2023-04-17T15:02:39.116Z,15.73
2023-04-17T15:05:06.550Z,15.71
2023-04-17T15:07:33.121Z,15.69
2023-04-17T15:09:59.765Z,15.65
2023-04-17T15:12:27.171Z,15.64
2023-04-17T15:14:53.905Z,15.62
2023-04-17T15:17:21.031Z,15.60
2023-04-17T15:19:47.799Z,15.58
2023-04-17T15:22:14.549Z,15.56
2023-04-17T15:24:41.215Z,15.60
2023-04-17T15:27:07.786Z,15.58
2023-04-17T15:29:34.572Z,15.63
2023-04-17T15:32:02.484Z,15.64
2023-04-17T15:34:29.161Z,15.65
2023-04-17T15:36:55.784Z,15.68
2023-04-17T15:39:23.322Z,15.87
2023-04-17T15:41:50.618Z,16.00
2023-04-17T15:44:17.331Z,16.10
2023-04-17T15:46:44.052Z,16.13
2023-04-17T15:49:10.826Z,16.25
2023-04-17T15:51:39.053Z,16.22
2023-04-17T15:54:07.914Z,16.09
2023-04-17T15:56:34.738Z,16.04
2023-04-17T15:59:01.294Z,16.09
2023-04-17T16:01:28.689Z,16.02
2023-04-17T16:03:55.584Z,16.02
2023-04-17T16:06:22.468Z,15.96
2023-04-17T16:08:49.135Z,15.95
2023-04-17T16:11:15.756Z,15.93
2023-04-17T16:13:42.306Z,15.93
2023-04-17T16:16:08.943Z,15.91
2023-04-17T16:18:35.630Z,15.90
2023-04-17T16:21:03.087Z,15.90
2023-04-17T16:23:29.963Z,15.87
2023-04-17T16:25:56.546Z,15.97
2023-04-17T16:28:23.826Z,16.09
2023-04-17T16:30:50.603Z,16.11
2023-04-17T16:33:17.242Z,16.11
2023-04-17T16:35:43.735Z,15.96
2023-04-17T16:38:10.393Z,15.90
2023-04-17T16:40:37.034Z,15.90
2023-04-17T16:43:03.567Z,15.89
2023-04-17T16:45:30.098Z,15.87
2023-04-17T16:47:56.902Z,15.85
2023-04-17T16:50:25.472Z,15.81
2023-04-17T16:52:52.343Z,15.80
2023-04-17T16:55:18.906Z,15.78
2023-04-17T16:57:46.805Z,15.75
2023-04-17T17:00:13.907Z,15.75
2023-04-17T17:02:40.904Z,15.71
2023-04-17T17:05:08.190Z,15.66
2023-04-17T17:07:34.754Z,15.65
2023-04-17T17:10:01.730Z,15.62
2023-04-17T17:12:28.486Z,15.61
2023-04-17T17:14:55.310Z,15.60
2023-04-17T17:17:22.000Z,15.56
2023-04-17T17:19:49.128Z,15.52
2023-04-17T17:22:15.983Z,15.50
2023-04-17T17:24:43.135Z,15.48
2023-04-17T17:27:09.833Z,15.46
2023-04-17T17:29:36.380Z,15.41
2023-04-17T17:32:02.994Z,15.39
2023-04-17T17:34:30.497Z,15.40
2023-04-17T17:36:57.298Z,15.39
2023-04-17T17:39:23.928Z,15.38
2023-04-17T17:41:50.743Z,15.36
2023-04-17T17:44:17.599Z,15.35
2023-04-17T17:46:44.272Z,15.32
2023-04-17T17:49:10.916Z,15.32
2023-04-17T17:51:37.625Z,15.31
2023-04-17T17:54:04.123Z,15.26
2023-04-17T17:56:30.806Z,15.28
2023-04-17T17:58:57.405Z,15.26
2023-04-17T18:01:25.047Z,15.25
2023-04-17T18:03:52.956Z,15.24
2023-04-17T18:06:20.413Z,15.22
2023-04-17T18:08:47.170Z,15.22
2023-04-17T18:11:14.005Z,15.21
2023-04-17T18:13:40.600Z,15.18
2023-04-17T18:16:07.544Z,15.16
2023-04-17T18:18:34.173Z,15.17
2023-04-17T18:21:05.298Z,15.16
2023-04-17T18:23:31.784Z,15.16
2023-04-17T18:25:58.804Z,15.16
2023-04-17T18:28:26.148Z,15.14
2023-04-17T18:30:52.809Z,15.13
2023-04-17T18:33:19.430Z,15.13
2023-04-17T18:35:46.124Z,15.13
2023-04-17T18:38:12.730Z,15.12
2023-04-17T18:40:39.276Z,15.10
2023-04-17T18:43:06.212Z,15.11
2023-04-17T18:45:32.776Z,15.08
2023-04-17T18:47:59.483Z,15.08
2023-04-17T18:50:27.049Z,15.08
2023-04-17T18:52:53.570Z,15.07
2023-04-17T18:55:20.215Z,15.06
2023-04-17T18:57:46.828Z,15.06
2023-04-17T19:00:13.490Z,15.04
2023-04-17T19:02:40.746Z,15.05
2023-04-17T19:05:07.857Z,15.04
2023-04-17T19:07:34.512Z,15.04
2023-04-17T19:10:01.097Z,15.03
2023-04-17T19:12:27.794Z,15.04
2023-04-17T19:14:57.099Z,15.03
2023-04-17T19:17:25.493Z,15.02
2023-04-17T19:19:52.229Z,15.01
2023-04-17T19:22:18.850Z,15.00
2023-04-17T19:24:49.722Z,14.98
2023-04-17T19:27:16.787Z,14.99
2023-04-17T19:29:43.434Z,14.98
2023-04-17T19:32:10.782Z,14.99
2023-04-17T19:34:37.384Z,14.96
2023-04-17T19:37:04.427Z,14.97
2023-04-17T19:39:31.207Z,14.96
2023-04-17T19:41:58.136Z,14.95
2023-04-17T19:44:26.568Z,14.94
2023-04-17T19:46:54.403Z,14.94
2023-04-17T19:49:20.958Z,14.92
2023-04-17T19:51:47.581Z,14.92
2023-04-17T19:54:15.395Z,14.92
2023-04-17T19:56:41.968Z,14.92
2023-04-17T19:59:12.552Z,14.90
2023-04-17T20:01:41.400Z,14.90
2023-04-17T20:04:09.871Z,14.89
2023-04-17T20:06:36.572Z,14.87
2023-04-17T20:09:04.729Z,14.87
2023-04-17T20:11:31.304Z,14.87
2023-04-17T20:13:58.118Z,14.86
2023-04-17T20:16:25.133Z,14.86
2023-04-17T20:18:52.106Z,14.88
2023-04-17T20:21:18.833Z,14.92
2023-04-17T20:23:46.865Z,14.92
2023-04-17T20:26:13.491Z,14.90
2023-04-17T20:28:40.305Z,14.90
2023-04-17T20:31:07.066Z,14.88
2023-04-17T20:33:33.833Z,14.87
2023-04-17T20:36:00.760Z,14.87
2023-04-17T20:38:27.446Z,14.86
2023-04-17T20:40:54.158Z,14.85
2023-04-17T20:43:20.768Z,14.84
2023-04-17T20:45:49.276Z,14.84
2023-04-17T20:48:16.550Z,14.83
2023-04-17T20:50:43.270Z,14.80
2023-04-17T20:53:09.981Z,14.81
2023-04-17T20:55:37.782Z,14.80
2023-04-17T20:58:04.392Z,14.80
2023-04-17T21:00:31.116Z,14.80
2023-04-17T21:02:57.780Z,14.79
2023-04-17T21:05:24.814Z,14.79
2023-04-17T21:07:51.800Z,14.79
2023-04-17T21:10:20.023Z,14.78
2023-04-17T21:12:47.021Z,14.77
2023-04-17T21:15:13.628Z,14.76
2023-04-17T21:17:40.312Z,14.77
2023-04-17T21:20:07.466Z,14.75
2023-04-17T21:22:34.140Z,14.75
2023-04-17T21:25:00.864Z,14.73
2023-04-17T21:27:27.569Z,14.73
2023-04-17T21:29:54.317Z,14.76
2023-04-17T21:32:21.107Z,14.73
2023-04-17T21:34:47.932Z,14.73
2023-04-17T21:37:14.564Z,14.73
2023-04-17T21:39:41.275Z,14.72
2023-04-17T21:42:09.754Z,14.72
2023-04-17T21:44:36.384Z,14.72
2023-04-17T21:47:03.031Z,14.71
2023-04-17T21:49:29.691Z,14.72
2023-04-17T21:51:56.888Z,14.71
2023-04-17T21:54:25.368Z,14.69
2023-04-17T21:56:52.034Z,14.69
2023-04-17T21:59:18.838Z,14.70
2023-04-17T22:01:45.565Z,14.70
2023-04-17T22:04:12.317Z,14.70
2023-04-17T22:06:39.029Z,14.68
2023-04-17T22:09:05.688Z,14.68
2023-04-17T22:11:32.427Z,14.67
2023-04-17T22:13:59.025Z,14.68
2023-04-17T22:16:25.652Z,14.68
2023-04-17T22:18:52.183Z,14.67
2023-04-17T22:21:18.764Z,14.66
2023-04-17T22:23:45.316Z,14.65
2023-04-17T22:26:11.944Z,14.62
2023-04-17T22:28:38.836Z,14.64
2023-04-17T22:31:05.681Z,14.65
2023-04-17T22:33:32.239Z,14.62
2023-04-17T22:35:58.786Z,14.62
2023-04-17T22:38:25.281Z,14.61
2023-04-17T22:40:51.923Z,14.62
2023-04-17T22:43:18.631Z,14.62
2023-04-17T22:45:45.410Z,14.63
2023-04-17T22:48:12.105Z,14.60
2023-04-17T22:50:39.311Z,14.62
2023-04-17T22:53:06.015Z,14.58
2023-04-17T22:55:33.145Z,14.58
2023-04-17T22:58:02.003Z,14.58
2023-04-17T23:00:29.745Z,14.55
2023-04-17T23:02:56.452Z,14.57
2023-04-17T23:05:23.171Z,14.56
2023-04-17T23:07:50.542Z,14.53
2023-04-17T23:10:17.203Z,14.56
2023-04-17T23:12:43.940Z,14.54
2023-04-17T23:15:10.822Z,14.54
2023-04-17T23:17:37.525Z,14.52
2023-04-17T23:20:04.748Z,14.51
2023-04-17T23:22:31.261Z,14.51
2023-04-17T23:24:57.790Z,14.52
2023-04-17T23:27:24.350Z,14.51
2023-04-17T23:29:50.928Z,14.49
2023-04-17T23:32:17.478Z,14.49
2023-04-17T23:34:44.211Z,14.46
2023-04-17T23:37:10.994Z,14.47
2023-04-17T23:39:37.674Z,14.48
2023-04-17T23:42:07.234Z,14.47
2023-04-17T23:44:34.684Z,14.42
2023-04-17T23:47:01.748Z,14.45
2023-04-17T23:49:28.457Z,14.45
2023-04-17T23:51:54.910Z,14.44
2023-04-17T23:54:21.676Z,14.47
2023-04-17T23:56:48.165Z,14.47
2023-04-17T23:59:14.717Z,14.45
